createdAt,value
2022-12-08T00:00:08.713Z,15.4
2022-12-08T00:01:10.914Z,15.5
2022-12-08T00:02:14.021Z,15.4
2022-12-08T00:03:18.299Z,15.4
2022-12-08T00:04:21.178Z,15.6
2022-12-08T00:05:23.387Z,15.5
2022-12-08T00:06:25.294Z,15.4
2022-12-08T00:07:27.706Z,15.5
2022-12-08T00:08:29.607Z,15.4
2022-12-08T00:11:41.519Z,15.4
2022-12-08T00:12:43.996Z,15.6
2022-12-08T00:13:46.777Z,15.6
2022-12-08T00:14:49.257Z,15.5
2022-12-08T00:15:51.471Z,15.6
2022-12-08T00:16:53.553Z,15.6
2022-12-08T00:17:56.555Z,15.6
2022-12-08T00:18:59.112Z,15.7
2022-12-08T00:20:01.300Z,15.6
2022-12-08T00:21:03.784Z,15.6
2022-12-08T00:22:06.282Z,15.6
2022-12-08T00:23:08.208Z,15.7
2022-12-08T00:24:10.399Z,15.5
2022-12-08T00:25:12.585Z,15.6
2022-12-08T00:26:15.092Z,15.7
2022-12-08T00:27:17.278Z,15.7
2022-12-08T00:28:19.761Z,15.6
2022-12-08T00:29:22.251Z,15.6
2022-12-08T00:30:24.186Z,15.6
2022-12-08T00:31:26.822Z,15.6
2022-12-08T00:32:29.511Z,15.4
2022-12-08T00:33:32.091Z,15.6
2022-12-08T00:34:34.697Z,15.6
2022-12-08T00:36:41.894Z,15.6
2022-12-08T00:37:44.380Z,15.7
2022-12-08T00:38:46.572Z,15.7
2022-12-08T00:39:49.066Z,15.6
2022-12-08T00:40:51.251Z,15.8
2022-12-08T00:41:53.468Z,15.7
2022-12-08T00:42:55.649Z,15.7
2022-12-08T00:43:58.146Z,15.7
2022-12-08T00:45:00.086Z,15.7
2022-12-08T00:46:02.713Z,15.7
2022-12-08T00:47:05.640Z,15.7
2022-12-08T00:48:08.119Z,15.7
2022-12-08T00:49:10.077Z,15.8
2022-12-08T00:50:12.636Z,15.7
2022-12-08T00:51:15.114Z,15.6
2022-12-08T00:52:17.052Z,15.7
2022-12-08T00:53:19.537Z,15.8
2022-12-08T00:54:22.028Z,15.7
2022-12-08T00:55:24.533Z,15.7
2022-12-08T00:56:27.026Z,15.6
2022-12-08T00:57:29.227Z,15.7
2022-12-08T00:58:31.706Z,15.6
2022-12-08T00:59:33.924Z,15.7
2022-12-08T01:00:36.445Z,15.7
2022-12-08T01:01:39.014Z,15.7
2022-12-08T01:02:42.026Z,15.7
2022-12-08T01:03:44.650Z,15.6
2022-12-08T01:04:47.524Z,15.7
2022-12-08T01:05:50.067Z,15.7
2022-12-08T01:06:52.542Z,15.7
2022-12-08T01:07:54.916Z,15.7
2022-12-08T01:08:57.154Z,15.8
2022-12-08T01:09:59.079Z,15.7
2022-12-08T01:11:01.622Z,15.7
2022-12-08T01:12:03.816Z,15.8
2022-12-08T01:13:06.033Z,15.8
2022-12-08T01:14:08.514Z,15.8
2022-12-08T01:15:10.717Z,15.7
2022-12-08T01:16:13.341Z,15.7
2022-12-08T01:17:16.040Z,15.7
2022-12-08T01:18:18.549Z,15.7
2022-12-08T01:19:20.468Z,15.7
2022-12-08T01:20:22.726Z,15.7
2022-12-08T01:21:25.268Z,15.7
2022-12-08T01:22:27.479Z,15.7
2022-12-08T01:23:29.728Z,15.7
2022-12-08T01:24:32.211Z,15.8
2022-12-08T01:25:34.716Z,15.8
2022-12-08T01:26:37.192Z,15.7
2022-12-08T01:27:39.698Z,15.8
2022-12-08T01:28:42.182Z,15.8
2022-12-08T01:29:44.679Z,15.8
2022-12-08T01:30:47.314Z,15.8
2022-12-08T01:31:49.729Z,15.8
2022-12-08T01:32:52.225Z,15.8
2022-12-08T01:33:54.691Z,15.8
2022-12-08T01:34:57.178Z,15.8
2022-12-08T01:35:59.708Z,15.8
2022-12-08T01:37:02.002Z,15.7
2022-12-08T01:38:04.475Z,15.7
2022-12-08T01:39:06.954Z,15.8
2022-12-08T01:40:09.442Z,15.8
2022-12-08T01:41:12.008Z,15.7
2022-12-08T01:42:14.479Z,15.7
2022-12-08T01:43:16.962Z,15.8
2022-12-08T01:44:19.133Z,15.7
2022-12-08T01:45:21.615Z,15.8
2022-12-08T01:46:23.702Z,15.7
2022-12-08T01:47:26.474Z,15.8
2022-12-08T01:48:28.808Z,15.8
2022-12-08T01:49:31.289Z,15.7
2022-12-08T01:50:33.224Z,15.8
2022-12-08T01:51:35.464Z,15.9
2022-12-08T01:52:38.017Z,15.8
2022-12-08T01:53:40.499Z,15.8
2022-12-08T01:54:43.072Z,15.8
2022-12-08T01:55:45.572Z,15.8
2022-12-08T01:56:47.761Z,15.8
2022-12-08T01:57:50.246Z,15.8
2022-12-08T01:58:52.447Z,15.8
2022-12-08T01:59:54.930Z,15.9
2022-12-08T02:00:57.243Z,15.9
2022-12-08T02:01:59.941Z,15.8
2022-12-08T02:03:02.989Z,15.8
2022-12-08T02:04:05.897Z,15.8
2022-12-08T02:05:07.831Z,15.7
2022-12-08T02:06:10.313Z,15.7
2022-12-08T02:07:12.844Z,15.8
2022-12-08T02:08:15.486Z,15.8
2022-12-08T02:09:18.077Z,15.7
2022-12-08T02:10:20.557Z,15.8
2022-12-08T02:11:22.480Z,15.8
2022-12-08T02:12:24.687Z,15.8
2022-12-08T02:13:27.161Z,15.8
2022-12-08T02:14:29.363Z,15.8
2022-12-08T02:15:31.941Z,15.8
2022-12-08T02:16:34.428Z,15.8
2022-12-08T02:17:36.598Z,15.8
2022-12-08T02:18:39.078Z,15.8
2022-12-08T02:19:41.277Z,15.8
2022-12-08T02:20:43.748Z,15.8
2022-12-08T02:21:46.233Z,15.9
2022-12-08T02:22:48.753Z,15.7
2022-12-08T02:23:51.293Z,15.8
2022-12-08T02:24:53.765Z,15.8
2022-12-08T02:25:55.978Z,15.8
2022-12-08T02:26:57.604Z,15.9
2022-12-08T02:28:00.098Z,15.8
2022-12-08T02:29:02.299Z,15.9
2022-12-08T02:30:05.777Z,15.8
2022-12-08T02:31:09.383Z,15.9
2022-12-08T02:32:12.182Z,15.8
2022-12-08T02:33:14.401Z,15.9
2022-12-08T02:34:16.894Z,15.8
2022-12-08T02:35:19.099Z,15.8
2022-12-08T02:36:21.291Z,15.9
2022-12-08T02:37:23.493Z,15.8
2022-12-08T02:38:26.009Z,15.9
2022-12-08T02:39:28.549Z,15.8
2022-12-08T02:40:31.039Z,15.8
2022-12-08T02:41:33.529Z,15.8
2022-12-08T02:42:35.727Z,15.8
2022-12-08T02:43:37.928Z,15.8
2022-12-08T02:44:40.412Z,15.9
2022-12-08T02:45:42.620Z,15.9
2022-12-08T02:46:45.327Z,15.8
2022-12-08T02:47:47.292Z,15.8
2022-12-08T02:48:49.517Z,15.9
2022-12-08T02:49:51.748Z,16
2022-12-08T02:50:53.671Z,15.8
2022-12-08T02:51:55.867Z,15.8
2022-12-08T02:52:58.095Z,15.8
2022-12-08T02:54:00.664Z,15.9
2022-12-08T02:55:03.241Z,15.8
2022-12-08T02:56:04.898Z,15.9
2022-12-08T02:57:07.381Z,15.9
2022-12-08T02:58:09.580Z,15.8
2022-12-08T02:59:11.781Z,15.9
2022-12-08T03:00:14.282Z,15.8
2022-12-08T03:01:16.828Z,15.9
2022-12-08T03:02:19.824Z,15.9
2022-12-08T03:03:22.317Z,15.8
2022-12-08T03:04:24.538Z,15.9
2022-12-08T03:05:27.025Z,15.8
2022-12-08T03:06:29.508Z,15.9
2022-12-08T03:07:31.743Z,15.8
2022-12-08T03:08:34.237Z,15.9
2022-12-08T03:09:36.497Z,15.9
2022-12-08T03:10:39.051Z,15.9
2022-12-08T03:11:41.243Z,15.9
2022-12-08T03:12:43.717Z,15.9
2022-12-08T03:13:45.666Z,16
2022-12-08T03:14:47.866Z,15.8
2022-12-08T03:15:50.444Z,15.8
2022-12-08T03:16:53.198Z,15.9
2022-12-08T03:17:55.400Z,15.7
2022-12-08T03:18:57.038Z,15.9
2022-12-08T03:19:59.530Z,15.9
2022-12-08T03:21:02.095Z,15.8
2022-12-08T03:22:04.567Z,15.9
2022-12-08T03:23:06.246Z,15.9
2022-12-08T03:24:08.417Z,15.8
2022-12-08T03:25:10.701Z,15.9
2022-12-08T03:26:13.237Z,15.8
2022-12-08T03:27:14.893Z,15.8
2022-12-08T03:28:17.536Z,15.8
2022-12-08T03:29:20.018Z,15.8
2022-12-08T03:30:22.569Z,15.8
2022-12-08T03:31:25.078Z,16
2022-12-08T03:32:27.685Z,15.9
2022-12-08T03:33:30.177Z,16
2022-12-08T03:34:32.668Z,15.9
2022-12-08T03:35:35.165Z,15.9
2022-12-08T03:36:37.665Z,15.9
2022-12-08T03:37:40.162Z,15.9
2022-12-08T03:38:42.090Z,15.9
2022-12-08T03:39:44.296Z,16
2022-12-08T03:40:46.824Z,15.9
2022-12-08T03:41:49.385Z,15.9
2022-12-08T03:42:51.309Z,15.9
2022-12-08T03:43:53.530Z,15.8
2022-12-08T03:44:55.724Z,15.8
2022-12-08T03:45:57.705Z,15.9
2022-12-08T03:47:00.064Z,16
2022-12-08T03:48:02.278Z,15.9
2022-12-08T03:49:04.763Z,15.9
2022-12-08T03:50:07.579Z,15.8
2022-12-08T03:51:09.824Z,15.9
2022-12-08T03:52:12.036Z,15.9
2022-12-08T03:53:14.517Z,15.9
2022-12-08T03:54:16.731Z,15.9
2022-12-08T03:55:18.634Z,16
2022-12-08T03:56:21.167Z,16
2022-12-08T03:57:23.728Z,15.9
2022-12-08T03:58:26.224Z,15.8
2022-12-08T03:59:33.162Z,15.9
2022-12-08T04:00:35.663Z,15.9
2022-12-08T04:01:38.090Z,15.8
2022-12-08T04:02:41.016Z,15.9
2022-12-08T04:03:43.540Z,16
2022-12-08T04:04:45.830Z,15.9
2022-12-08T04:05:48.307Z,15.9
2022-12-08T04:06:50.502Z,16
2022-12-08T04:07:52.814Z,16
2022-12-08T04:08:55.041Z,15.8
2022-12-08T04:09:56.976Z,15.9
2022-12-08T04:10:59.178Z,15.9
2022-12-08T04:12:01.698Z,15.9
2022-12-08T04:13:04.254Z,15.9
2022-12-08T04:14:06.469Z,15.9
2022-12-08T04:15:08.693Z,15.8
2022-12-08T04:16:10.998Z,15.8
2022-12-08T04:17:13.444Z,15.8
2022-12-08T04:18:15.644Z,15.8
2022-12-08T04:19:18.137Z,15.8
2022-12-08T04:20:20.619Z,15.8
2022-12-08T04:21:23.102Z,15.8
2022-12-08T04:22:25.764Z,15.8
2022-12-08T04:23:28.926Z,15.8
2022-12-08T04:24:30.861Z,15.8
2022-12-08T04:25:33.089Z,15.8
2022-12-08T04:26:35.001Z,15.8
2022-12-08T04:27:37.524Z,15.8
2022-12-08T04:28:40.072Z,15.8
2022-12-08T04:29:42.277Z,15.8
2022-12-08T04:30:44.781Z,15.8
2022-12-08T04:31:47.130Z,15.9
2022-12-08T04:32:49.915Z,15.8
2022-12-08T04:33:51.849Z,15.8
2022-12-08T04:34:54.063Z,15.8
2022-12-08T04:35:56.536Z,15.8
2022-12-08T04:36:58.188Z,15.9
2022-12-08T04:38:00.676Z,15.8
2022-12-08T04:39:03.161Z,15.8
2022-12-08T04:40:06.101Z,15.8
2022-12-08T04:41:09.346Z,15.7
2022-12-08T04:42:11.553Z,15.8
2022-12-08T04:43:13.519Z,15.8
2022-12-08T04:44:16.095Z,15.8
2022-12-08T04:45:18.620Z,15.8
2022-12-08T04:46:21.320Z,15.8
2022-12-08T04:47:24.087Z,15.7
2022-12-08T04:48:26.590Z,15.8
2022-12-08T04:49:29.059Z,15.8
2022-12-08T04:50:30.982Z,15.8
2022-12-08T04:51:33.456Z,15.8
2022-12-08T04:52:35.403Z,15.7
2022-12-08T04:54:42.580Z,15.8
2022-12-08T04:55:45.067Z,15.7
2022-12-08T04:56:47.539Z,15.8
2022-12-08T04:57:49.742Z,15.7
2022-12-08T04:58:52.259Z,15.8
2022-12-08T04:59:54.798Z,15.7
2022-12-08T05:00:57.319Z,15.8
2022-12-08T05:02:00.447Z,15.8
2022-12-08T05:03:03.968Z,15.8
2022-12-08T05:04:06.789Z,15.7
2022-12-08T05:05:09.264Z,15.8
2022-12-08T05:06:11.846Z,15.7
2022-12-08T05:07:14.115Z,15.7
2022-12-08T05:08:16.831Z,15.7
2022-12-08T05:09:19.265Z,15.7
2022-12-08T05:10:21.752Z,15.8
2022-12-08T05:11:23.696Z,15.7
2022-12-08T05:12:26.230Z,15.8
2022-12-08T05:13:28.716Z,15.7
2022-12-08T05:14:30.987Z,15.7
2022-12-08T05:15:33.539Z,15.7
2022-12-08T05:16:35.870Z,15.6
2022-12-08T05:17:38.473Z,15.7
2022-12-08T05:18:40.405Z,15.7
2022-12-08T05:19:42.897Z,15.7
2022-12-08T05:20:45.391Z,15.8
2022-12-08T05:21:47.581Z,15.7
2022-12-08T05:22:49.801Z,15.7
2022-12-08T05:23:51.717Z,15.7
2022-12-08T05:24:53.921Z,15.7
2022-12-08T05:25:56.115Z,15.7
2022-12-08T05:26:58.328Z,15.6
2022-12-08T05:29:05.527Z,15.7
2022-12-08T05:30:08.115Z,15.7
2022-12-08T05:31:10.843Z,15.7
2022-12-08T05:32:12.831Z,15.7
2022-12-08T05:33:15.030Z,15.7
2022-12-08T05:34:17.525Z,15.7
2022-12-08T05:35:19.728Z,15.6
2022-12-08T05:36:22.227Z,15.7
2022-12-08T05:37:24.164Z,15.7
2022-12-08T05:38:26.645Z,15.8
2022-12-08T05:39:29.182Z,15.7
2022-12-08T05:40:31.412Z,15.7
2022-12-08T05:41:33.608Z,15.7
2022-12-08T05:42:36.085Z,15.8
2022-12-08T05:43:38.290Z,15.8
2022-12-08T05:44:40.876Z,15.7
2022-12-08T05:45:43.514Z,15.7
2022-12-08T05:46:46.538Z,15.8
2022-12-08T05:47:49.020Z,15.7
2022-12-08T05:48:51.253Z,15.8
2022-12-08T05:49:53.766Z,15.7
2022-12-08T05:50:55.979Z,15.7
2022-12-08T05:51:58.460Z,15.7
2022-12-08T05:53:00.678Z,15.8
2022-12-08T05:54:03.154Z,15.7
2022-12-08T05:55:05.362Z,15.7
2022-12-08T05:56:07.929Z,15.6
2022-12-08T05:57:10.468Z,15.7
2022-12-08T05:58:12.949Z,15.7
2022-12-08T05:59:15.441Z,15.7
2022-12-08T06:00:17.670Z,15.7
2022-12-08T06:01:20.230Z,15.7
2022-12-08T06:02:23.232Z,15.7
2022-12-08T06:03:26.384Z,15.7
2022-12-08T06:04:29.243Z,15.7
2022-12-08T06:05:31.743Z,15.7
2022-12-08T06:06:34.239Z,15.7
2022-12-08T06:07:36.785Z,15.7
2022-12-08T06:08:39.221Z,15.7
2022-12-08T06:09:41.429Z,15.6
2022-12-08T06:10:43.670Z,15.6
2022-12-08T06:11:46.230Z,15.6
2022-12-08T06:12:48.437Z,15.8
2022-12-08T06:13:50.933Z,15.6
2022-12-08T06:14:53.413Z,15.8
2022-12-08T06:15:55.660Z,15.7
2022-12-08T06:16:58.328Z,15.7
2022-12-08T06:18:01.247Z,15.6
2022-12-08T06:19:03.171Z,15.7
2022-12-08T06:20:05.785Z,15.7
2022-12-08T06:21:09.193Z,15.8
2022-12-08T06:22:11.127Z,15.7
2022-12-08T06:23:13.616Z,15.6
2022-12-08T06:24:16.103Z,15.7
2022-12-08T06:25:18.027Z,15.7
2022-12-08T06:26:20.225Z,15.7
2022-12-08T06:27:22.715Z,15.6
2022-12-08T06:28:24.946Z,15.8
2022-12-08T06:29:27.192Z,15.7
2022-12-08T06:30:29.423Z,15.7
2022-12-08T06:31:31.752Z,15.7
2022-12-08T06:32:34.530Z,15.7
2022-12-08T06:33:37.283Z,15.5
2022-12-08T06:34:39.772Z,15.7
2022-12-08T06:35:42.258Z,15.6
2022-12-08T06:36:44.761Z,15.6
2022-12-08T06:37:46.952Z,15.7
2022-12-08T06:38:49.204Z,15.8
2022-12-08T06:39:51.419Z,15.6
2022-12-08T06:40:53.361Z,15.5
2022-12-08T06:41:55.580Z,15.7
2022-12-08T06:42:57.790Z,15.7
2022-12-08T06:43:59.710Z,15.7
2022-12-08T06:45:01.919Z,15.6
2022-12-08T06:46:03.972Z,15.7
2022-12-08T06:47:06.491Z,15.8
2022-12-08T06:48:08.475Z,15.7
2022-12-08T06:49:11.026Z,15.6
2022-12-08T06:50:13.533Z,15.7
2022-12-08T06:51:16.110Z,15.7
2022-12-08T06:52:18.691Z,15.6
2022-12-08T06:53:20.612Z,15.7
2022-12-08T06:54:22.828Z,15.7
2022-12-08T06:56:30.288Z,15.6
2022-12-08T06:57:32.778Z,15.6
2022-12-08T06:58:35.271Z,15.7
2022-12-08T06:59:37.198Z,15.6
2022-12-08T07:00:39.129Z,15.6
2022-12-08T07:01:41.789Z,15.6
2022-12-08T07:02:44.694Z,15.6
2022-12-08T07:03:47.785Z,15.6
2022-12-08T07:04:50.388Z,15.6
2022-12-08T07:05:52.381Z,15.7
2022-12-08T07:06:54.344Z,15.7
2022-12-08T07:07:56.970Z,15.6
2022-12-08T07:08:59.595Z,15.6
2022-12-08T07:10:02.785Z,15.6
2022-12-08T07:11:06.749Z,15.7
2022-12-08T07:12:08.977Z,15.6
2022-12-08T07:13:11.207Z,15.6
2022-12-08T07:14:13.430Z,15.7
2022-12-08T07:15:15.732Z,15.5
2022-12-08T07:16:18.395Z,15.6
2022-12-08T07:17:20.993Z,15.6
2022-12-08T07:18:23.222Z,15.7
2022-12-08T07:19:25.747Z,15.7
2022-12-08T07:20:28.577Z,15.6
2022-12-08T07:21:31.419Z,15.7
2022-12-08T07:22:33.910Z,15.7
2022-12-08T07:23:36.413Z,15.7
2022-12-08T07:24:53.596Z,15.5
2022-12-08T07:25:55.808Z,15.6
2022-12-08T07:26:58.272Z,15.7
2022-12-08T07:28:00.221Z,15.7
2022-12-08T07:29:02.433Z,15.6
2022-12-08T07:30:05.388Z,15.7
2022-12-08T07:31:08.602Z,15.6
2022-12-08T07:32:11.527Z,15.6
2022-12-08T07:33:13.715Z,15.5
2022-12-08T07:34:16.217Z,15.5
2022-12-08T07:35:18.775Z,15.5
2022-12-08T07:36:21.334Z,15.5
2022-12-08T07:37:23.852Z,15.7
2022-12-08T07:38:26.075Z,15.7
2022-12-08T07:39:28.564Z,15.5
2022-12-08T07:40:31.042Z,15.6
2022-12-08T07:41:33.533Z,15.6
2022-12-08T07:42:35.744Z,15.6
2022-12-08T07:43:37.949Z,15.6
2022-12-08T07:44:40.440Z,15.6
2022-12-08T07:45:42.585Z,15.6
2022-12-08T07:46:45.575Z,15.5
2022-12-08T07:47:48.110Z,15.6
2022-12-08T07:48:50.620Z,15.6
2022-12-08T07:49:53.127Z,15.6
2022-12-08T07:50:55.407Z,15.6
2022-12-08T07:51:57.703Z,15.6
2022-12-08T07:53:00.268Z,15.7
2022-12-08T07:54:02.565Z,15.7
2022-12-08T07:55:05.065Z,15.7
2022-12-08T07:56:07.559Z,15.6
2022-12-08T07:57:09.782Z,15.5
2022-12-08T07:58:12.266Z,15.5
2022-12-08T07:59:14.478Z,15.6
2022-12-08T08:00:16.985Z,15.6
2022-12-08T08:01:19.427Z,15.6
2022-12-08T08:03:27.317Z,15.6
2022-12-08T08:04:29.665Z,15.7
2022-12-08T08:05:32.417Z,15.5
2022-12-08T08:06:34.970Z,15.6
2022-12-08T08:07:37.675Z,15.7
2022-12-08T08:08:39.779Z,15.7
2022-12-08T08:09:41.981Z,15.6
2022-12-08T08:10:44.204Z,15.6
2022-12-08T08:12:51.672Z,15.6
2022-12-08T08:13:54.208Z,15.6
2022-12-08T08:14:56.700Z,15.6
2022-12-08T08:15:59.263Z,15.7
2022-12-08T08:17:02.357Z,15.6
2022-12-08T08:18:05.220Z,15.6
2022-12-08T08:19:07.139Z,15.6
2022-12-08T08:20:09.348Z,15.5
2022-12-08T08:22:16.630Z,15.5
2022-12-08T08:23:19.224Z,15.5
2022-12-08T08:24:21.457Z,15.6
2022-12-08T08:25:23.974Z,15.6
2022-12-08T08:26:26.480Z,15.6
2022-12-08T08:27:28.703Z,15.6
2022-12-08T08:28:30.670Z,15.6
2022-12-08T08:29:33.172Z,15.6
2022-12-08T08:30:35.764Z,15.6
2022-12-08T08:31:38.444Z,15.7
2022-12-08T08:32:41.484Z,15.6
2022-12-08T08:33:43.966Z,15.7
2022-12-08T08:34:45.905Z,15.6
2022-12-08T08:35:47.828Z,15.7
2022-12-08T08:36:49.573Z,15.6
2022-12-08T08:37:52.474Z,15.5
2022-12-08T08:38:55.025Z,15.6
2022-12-08T08:39:56.664Z,15.6
2022-12-08T08:40:59.162Z,15.6
2022-12-08T08:42:01.891Z,15.7
2022-12-08T08:43:03.795Z,15.5
2022-12-08T08:44:06.291Z,15.7
2022-12-08T08:45:08.513Z,15.6
2022-12-08T08:46:11.223Z,15.6
2022-12-08T08:47:13.448Z,15.6
2022-12-08T08:48:15.653Z,15.6
2022-12-08T08:49:17.883Z,15.6
2022-12-08T08:50:20.129Z,15.6
2022-12-08T08:51:22.048Z,15.7
2022-12-08T08:52:24.543Z,15.7
2022-12-08T08:53:27.102Z,15.7
2022-12-08T08:54:29.701Z,15.6
2022-12-08T08:55:32.189Z,15.6
2022-12-08T08:56:34.124Z,15.7
2022-12-08T08:57:36.032Z,15.4
2022-12-08T08:58:38.228Z,15.7
2022-12-08T08:59:40.452Z,15.5
2022-12-08T09:00:42.951Z,15.6
2022-12-08T09:01:45.320Z,15.7
2022-12-08T09:02:47.879Z,15.6
2022-12-08T09:03:50.068Z,15.5
2022-12-08T09:04:52.705Z,15.5
2022-12-08T09:05:55.723Z,15.6
2022-12-08T09:06:58.534Z,15.7
2022-12-08T09:08:01.182Z,15.5
2022-12-08T09:09:03.979Z,15.5
2022-12-08T09:10:06.847Z,15.6
2022-12-08T09:11:10.381Z,15.7
2022-12-08T09:12:12.876Z,15.7
2022-12-08T09:13:15.361Z,15.7
2022-12-08T09:14:17.311Z,15.6
2022-12-08T09:15:19.533Z,15.6
2022-12-08T09:16:22.186Z,15.6
2022-12-08T09:17:24.473Z,15.6
2022-12-08T09:18:26.961Z,15.7
2022-12-08T09:19:28.898Z,15.6
2022-12-08T09:20:31.420Z,15.4
2022-12-08T09:21:33.697Z,15.6
2022-12-08T09:22:35.654Z,15.7
2022-12-08T09:23:37.589Z,15.6
2022-12-08T09:24:40.171Z,15.5
2022-12-08T09:25:42.438Z,15.7
2022-12-08T09:26:44.672Z,15.7
2022-12-08T09:27:46.887Z,15.6
2022-12-08T09:28:49.123Z,15.6
2022-12-08T09:29:51.607Z,15.6
2022-12-08T09:30:54.185Z,15.4
2022-12-08T09:31:56.874Z,15.6
2022-12-08T09:32:59.492Z,15.7
2022-12-08T09:34:02.051Z,15.6
2022-12-08T09:35:04.599Z,15.5
2022-12-08T09:36:06.519Z,15.5
2022-12-08T09:37:08.801Z,15.5
2022-12-08T09:38:10.802Z,15.6
2022-12-08T09:39:13.312Z,15.5
2022-12-08T09:40:15.618Z,15.5
2022-12-08T09:41:18.255Z,15.6
2022-12-08T09:42:20.211Z,15.6
2022-12-08T09:43:22.808Z,15.7
2022-12-08T09:44:25.016Z,15.5
2022-12-08T09:45:27.567Z,15.6
2022-12-08T09:46:29.434Z,15.7
2022-12-08T09:48:37.185Z,15.5
2022-12-08T09:49:39.141Z,15.6
2022-12-08T09:50:41.094Z,15.6
2022-12-08T09:51:43.609Z,15.7
2022-12-08T09:52:45.835Z,15.7
2022-12-08T09:53:48.785Z,15.6
2022-12-08T09:54:51.412Z,15.5
2022-12-08T09:55:53.658Z,15.6
2022-12-08T09:56:55.935Z,15.7
2022-12-08T09:57:58.473Z,15.5
2022-12-08T09:59:01.163Z,15.7
2022-12-08T10:00:04.140Z,15.6
2022-12-08T10:01:08.492Z,15.6
2022-12-08T10:02:11.128Z,15.6
2022-12-08T10:04:18.956Z,15.5
2022-12-08T10:05:21.664Z,15.4
2022-12-08T10:06:23.996Z,15.5
2022-12-08T10:07:25.997Z,15.5
2022-12-08T10:08:28.416Z,15.5
2022-12-08T10:09:31.367Z,15.6
2022-12-08T10:10:33.861Z,15.7
2022-12-08T10:11:36.121Z,15.7
2022-12-08T10:12:38.674Z,15.7
2022-12-08T10:13:40.882Z,15.6
2022-12-08T10:14:43.382Z,15.7
2022-12-08T10:15:46.094Z,15.4
2022-12-08T10:16:48.904Z,15.6
2022-12-08T10:17:51.432Z,15.4
2022-12-08T10:18:53.958Z,15.5
2022-12-08T10:19:55.922Z,15.6
2022-12-08T10:20:58.111Z,15.7
2022-12-08T10:22:00.607Z,15.6
2022-12-08T10:23:02.806Z,15.6
2022-12-08T10:24:05.028Z,15.6
2022-12-08T10:25:07.246Z,15.6
2022-12-08T10:26:09.745Z,15.4
2022-12-08T10:27:11.727Z,15.6
2022-12-08T10:28:14.319Z,15.6
2022-12-08T10:29:16.842Z,15.5
2022-12-08T10:30:19.463Z,15.7
2022-12-08T10:31:21.985Z,15.6
2022-12-08T10:32:24.912Z,15.6
2022-12-08T10:33:27.392Z,15.3
2022-12-08T10:34:29.902Z,15.6
2022-12-08T10:35:32.405Z,15.5
2022-12-08T10:36:34.887Z,15.4
2022-12-08T10:37:37.369Z,15.4
2022-12-08T10:38:39.587Z,15.7
2022-12-08T10:39:42.081Z,15.6
2022-12-08T10:40:46.342Z,15.5
2022-12-08T10:41:48.837Z,15.6
2022-12-08T10:42:51.458Z,15.3
2022-12-08T10:43:53.733Z,15.4
2022-12-08T10:44:56.235Z,15.5
2022-12-08T10:45:58.443Z,15.8
2022-12-08T10:47:00.878Z,15.6
2022-12-08T10:48:03.666Z,15.7
2022-12-08T10:49:05.346Z,15.6
2022-12-08T10:50:08.339Z,15.7
2022-12-08T10:51:10.594Z,15.5
2022-12-08T10:52:13.063Z,15.4
2022-12-08T10:53:15.581Z,15.6
2022-12-08T10:55:22.775Z,15.4
2022-12-08T10:56:24.826Z,15.6
2022-12-08T10:57:27.320Z,15.5
2022-12-08T10:58:29.626Z,15.6
2022-12-08T10:59:32.436Z,15.6
2022-12-08T11:00:35.463Z,15.6
2022-12-08T11:01:38.400Z,15.6
2022-12-08T11:02:41.736Z,15.6
2022-12-08T11:03:44.239Z,15.6
2022-12-08T11:04:46.447Z,15.6
2022-12-08T11:05:48.677Z,15.7
2022-12-08T11:06:51.157Z,15.6
2022-12-08T11:07:53.562Z,15.5
2022-12-08T11:08:55.915Z,15.6
2022-12-08T11:09:58.142Z,15.6
2022-12-08T11:11:00.070Z,15.7
2022-12-08T11:12:02.563Z,15.4
2022-12-08T11:13:04.789Z,15.6
2022-12-08T11:14:07.023Z,15.5
2022-12-08T11:15:09.650Z,15.6
2022-12-08T11:16:12.013Z,15.5
2022-12-08T11:17:14.591Z,15.6
2022-12-08T11:18:17.070Z,15.4
2022-12-08T11:19:19.016Z,15.5
2022-12-08T11:20:20.981Z,15.4
2022-12-08T11:21:23.189Z,15.5
2022-12-08T11:22:25.723Z,15.5
2022-12-08T11:23:27.957Z,15.5
2022-12-08T11:25:35.485Z,15.6
2022-12-08T11:26:37.682Z,15.4
2022-12-08T11:27:39.877Z,15.6
2022-12-08T11:28:41.812Z,15.6
2022-12-08T11:29:43.801Z,15.6
2022-12-08T11:30:46.380Z,15.4
2022-12-08T11:31:48.696Z,15.6
2022-12-08T11:32:51.529Z,15.6
2022-12-08T11:33:54.003Z,15.5
2022-12-08T11:34:56.512Z,15.5
2022-12-08T11:35:58.444Z,15.5
2022-12-08T11:37:00.937Z,15.5
2022-12-08T11:39:08.413Z,15.5
2022-12-08T11:40:10.650Z,15.6
2022-12-08T11:42:18.100Z,15.6
2022-12-08T11:43:20.312Z,15.4
2022-12-08T11:44:22.229Z,15.6
2022-12-08T11:45:24.808Z,15.6
2022-12-08T11:46:27.533Z,15.6
2022-12-08T11:47:30.097Z,15.4
2022-12-08T11:48:32.035Z,15.6
2022-12-08T11:49:34.551Z,15.5
2022-12-08T11:50:37.027Z,15.4
2022-12-08T11:51:39.241Z,15.6
2022-12-08T11:52:41.470Z,15.6
2022-12-08T11:53:43.956Z,15.5
2022-12-08T11:54:46.442Z,15.6
2022-12-08T11:55:50.758Z,15.4
2022-12-08T11:56:52.966Z,15.6
2022-12-08T11:57:54.693Z,15.6
2022-12-08T11:58:57.538Z,15.5
2022-12-08T11:59:59.729Z,15.6
2022-12-08T12:01:01.975Z,15.4
2022-12-08T12:02:04.680Z,15.5
2022-12-08T12:03:07.358Z,15.4
2022-12-08T12:04:09.768Z,15.5
2022-12-08T12:05:12.258Z,15.5
2022-12-08T12:08:26.223Z,15.4
2022-12-08T12:09:29.155Z,15.5
2022-12-08T12:10:31.629Z,15.4
2022-12-08T12:11:34.120Z,15.4
2022-12-08T12:13:41.342Z,15.5
2022-12-08T12:14:43.832Z,15.3
2022-12-08T12:15:46.045Z,15.4
2022-12-08T12:16:48.460Z,15.4
2022-12-08T12:17:51.352Z,15.5
2022-12-08T12:18:53.852Z,15.3
2022-12-08T12:19:56.330Z,15.5
2022-12-08T12:20:58.817Z,15.4
2022-12-08T12:22:00.735Z,15.7
2022-12-08T12:23:02.964Z,15.5
2022-12-08T12:24:05.472Z,15.5
2022-12-08T12:25:07.956Z,15.5
2022-12-08T12:26:10.438Z,15.4
2022-12-08T12:27:12.979Z,15.4
2022-12-08T12:28:15.663Z,15.4
2022-12-08T12:29:17.325Z,15.5
2022-12-08T12:30:19.547Z,15.6
2022-12-08T12:31:21.936Z,15.5
2022-12-08T12:32:24.267Z,15.6
2022-12-08T12:33:26.826Z,15.4
2022-12-08T12:34:29.316Z,15.5
2022-12-08T12:35:31.510Z,15.5
2022-12-08T12:36:33.733Z,15.4
2022-12-08T12:37:35.689Z,15.6
2022-12-08T12:38:38.187Z,15.5
2022-12-08T12:39:40.111Z,15.5
2022-12-08T12:40:42.589Z,15.4
2022-12-08T12:41:44.509Z,15.4
2022-12-08T12:42:46.434Z,15.6
2022-12-08T12:43:48.640Z,15.6
2022-12-08T12:44:50.851Z,15.3
2022-12-08T12:45:53.152Z,15.5
2022-12-08T12:46:55.588Z,15.4
2022-12-08T12:47:58.121Z,15.4
2022-12-08T12:49:00.679Z,15.3
2022-12-08T12:50:02.539Z,15.3
2022-12-08T12:51:06.116Z,15.5
2022-12-08T12:52:08.334Z,15.4
2022-12-08T12:54:15.241Z,15.5
2022-12-08T12:55:17.758Z,15.4
2022-12-08T12:56:19.966Z,15.5
2022-12-08T12:57:22.188Z,15.4
2022-12-08T12:58:23.859Z,15.5
2022-12-08T12:59:26.554Z,15.5
2022-12-08T13:00:29.039Z,15.5
2022-12-08T13:01:31.448Z,15.4
2022-12-08T13:02:34.357Z,15.5
2022-12-08T13:03:36.971Z,15.5
2022-12-08T13:04:39.519Z,15.4
2022-12-08T13:05:41.759Z,15.5
2022-12-08T13:06:44.242Z,15.4
2022-12-08T13:07:46.582Z,15.4
2022-12-08T13:08:48.503Z,15.6
2022-12-08T13:09:50.988Z,15.3
2022-12-08T13:10:53.469Z,15.7
2022-12-08T13:11:55.420Z,15.5
2022-12-08T13:12:57.919Z,15.4
2022-12-08T13:14:00.426Z,15.5
2022-12-08T13:15:02.650Z,15.4
2022-12-08T13:17:10.332Z,15.5
2022-12-08T13:18:13.406Z,15.5
2022-12-08T13:19:15.950Z,15.3
2022-12-08T13:20:18.562Z,15.5
2022-12-08T13:21:20.506Z,15.3
2022-12-08T13:22:22.888Z,15.4
2022-12-08T13:23:25.432Z,15.7
2022-12-08T13:24:27.656Z,15.3
2022-12-08T13:26:34.847Z,15.5
2022-12-08T13:27:37.050Z,15.6
2022-12-08T13:28:39.546Z,15.6
2022-12-08T13:29:42.044Z,15.7
2022-12-08T13:30:44.699Z,15.4
2022-12-08T13:33:57.318Z,15.6
2022-12-08T13:35:00.140Z,15.5
2022-12-08T13:36:02.714Z,15.7
2022-12-08T13:37:05.227Z,15.5
2022-12-08T13:38:07.712Z,15.5
2022-12-08T13:39:10.210Z,15.5
2022-12-08T13:40:12.705Z,15.7
2022-12-08T13:41:14.910Z,15.5
2022-12-08T13:42:17.404Z,15.5
2022-12-08T13:43:19.339Z,15.4
2022-12-08T13:53:41.841Z,15.6
2022-12-08T13:58:00.018Z,15.4
2022-12-08T13:59:02.791Z,15.4
2022-12-08T14:00:04.999Z,15.3
2022-12-08T14:01:07.095Z,15.4
2022-12-08T14:02:09.648Z,15.5
2022-12-08T14:03:12.498Z,15.5
2022-12-08T14:06:24.895Z,15.4
2022-12-08T14:07:27.100Z,15.5
2022-12-08T14:09:34.629Z,15.5
2022-12-08T14:10:36.807Z,15.5
2022-12-08T14:11:39.001Z,15.4
2022-12-08T14:12:41.262Z,15.4
2022-12-08T14:13:43.753Z,15.6
2022-12-08T14:15:51.437Z,15.5
2022-12-08T14:16:53.528Z,15.6
2022-12-08T14:17:55.757Z,15.4
2022-12-08T14:18:57.988Z,15.5
2022-12-08T14:19:59.911Z,15.4
2022-12-08T14:22:07.421Z,15.6
2022-12-08T14:23:09.923Z,15.4
2022-12-08T14:24:11.843Z,15.4
2022-12-08T14:25:13.519Z,15.5
2022-12-08T14:26:15.470Z,15.4
2022-12-08T14:27:17.410Z,15.3
2022-12-08T14:28:19.941Z,15.4
2022-12-08T14:29:22.298Z,15.5
2022-12-08T14:30:24.843Z,15.5
2022-12-08T14:31:27.175Z,15.5
2022-12-08T14:32:29.843Z,15.6
2022-12-08T14:33:31.827Z,15.4
2022-12-08T14:34:34.318Z,15.4